Airfield :
LOGIN :

Register | Disclaimer

   EN    FR    IT 

 










Legend :    VFR   Marginal VFR   IFR   Intensive IFR   Very Intensive IFR
Visi :
Ceiling :
>= 8 km
>= 3000ft
5 to 8 km
1000 to 3000 ft
1500m to 5 km
500 to 1000 ft
800 to 1500m
200 to 500 ft
< 800m
< 200 ft
Symbols :   Thunderstorms  Fog  Heavy snow  Heavy precipitations  Wind > 20 kt
SIGMETs :     Misc.  Thunderstorms  Icing  Turbulence  Mountain Waves  Volcanic Ashes






- Airport Elevation : 148 ft
- IATA code : ALL


LIMG - Villanova D'Albenga International

CURRENT METAR :
  • 071450Z 28013KT 9999 1000NE SCT070 30/18 Q1012

EXPIRED METARs :
  • 071350Z 28007KT 260V320 9999 1000N SCT070CB 31/15 Q1012
  • 071250Z 09008KT 060V120 9999 1000NW SCT070 34/14 Q1012

TAF TAF LIMG
Valid from the 07 at 12:00 until the 08 at 12:00 UTC


071100Z 0712/0812 02012KT 9999 SCT040
TEMPO 0712/0721 4000 TSRA
BECMG 0719/0721 VRB05KT



MET'MAP, your aeronautical weather chart ! - Copyright ORBIFLY December 2007 - Disclaimer

ORBIFLY MET'MAP TEAM :

Programming & Development : Alexandra Zaïnal
Original concept : Baudouin d'Aumeries
Technical & hardware support : Manuel Goepfert
Assistance : Marc-Olivier Méhu




SOURCES & CREDITS :

   NOAA